createdAt,value
2018-07-14T00:00:20.028Z,18.00
2018-07-14T00:02:48.249Z,18.10
2018-07-14T00:05:16.464Z,18.20
2018-07-14T00:07:44.660Z,18.20
2018-07-14T00:10:12.880Z,17.90
2018-07-14T00:12:41.068Z,17.90
2018-07-14T00:15:09.304Z,17.80
2018-07-14T00:17:37.556Z,17.80
2018-07-14T00:20:05.812Z,17.70
2018-07-14T00:22:33.989Z,17.50
2018-07-14T00:25:02.201Z,17.50
2018-07-14T00:27:30.373Z,17.40
2018-07-14T00:29:58.560Z,17.30
2018-07-14T00:32:26.760Z,17.40
2018-07-14T00:34:54.965Z,17.60
2018-07-14T00:37:23.180Z,17.70
2018-07-14T00:39:51.361Z,17.80
2018-07-14T00:42:19.558Z,17.80
2018-07-14T00:44:47.731Z,17.80
2018-07-14T00:47:15.949Z,17.90
2018-07-14T00:49:44.161Z,17.60
2018-07-14T00:52:12.390Z,17.30
2018-07-14T00:54:40.546Z,17.20
2018-07-14T00:57:08.768Z,17.00
2018-07-14T00:59:36.948Z,17.00
2018-07-14T01:02:05.164Z,17.20
2018-07-14T01:04:33.353Z,17.30
2018-07-14T01:09:29.506Z,17.40
2018-07-14T01:11:57.671Z,17.50
2018-07-14T01:14:25.957Z,17.50
2018-07-14T01:16:54.168Z,17.40
2018-07-14T01:19:22.337Z,17.40
2018-07-14T01:21:50.525Z,17.40
2018-07-14T01:24:18.705Z,17.40
2018-07-14T01:26:46.916Z,17.40
2018-07-14T01:29:15.412Z,17.30
2018-07-14T01:31:43.717Z,17.20
2018-07-14T01:34:11.914Z,17.00
2018-07-14T01:36:40.104Z,17.10
2018-07-14T01:39:08.781Z,17.10
2018-07-14T01:41:36.984Z,17.10
2018-07-14T01:44:05.178Z,17.00
2018-07-14T01:46:33.388Z,16.90
2018-07-14T01:49:01.637Z,17.00
2018-07-14T01:51:29.865Z,17.00
2018-07-14T01:53:58.122Z,17.00
2018-07-14T01:56:26.322Z,17.00
2018-07-14T01:58:54.516Z,16.90
2018-07-14T02:01:22.676Z,16.80
2018-07-14T02:03:50.921Z,16.60
2018-07-14T02:06:19.147Z,16.50
2018-07-14T02:08:47.308Z,16.60
2018-07-14T02:11:15.496Z,16.60
2018-07-14T02:13:43.677Z,16.80
2018-07-14T02:16:11.876Z,16.90
2018-07-14T02:18:40.038Z,17.00
2018-07-14T02:21:08.237Z,16.70
2018-07-14T02:23:36.383Z,16.50
2018-07-14T02:26:04.621Z,16.60
2018-07-14T02:28:32.819Z,16.60
2018-07-14T02:31:00.995Z,16.80
2018-07-14T02:33:29.194Z,16.80
2018-07-14T02:35:57.365Z,16.60
2018-07-14T02:38:25.569Z,16.60
2018-07-14T02:40:53.804Z,16.70
2018-07-14T02:43:21.982Z,16.80
2018-07-14T02:45:50.206Z,16.80
2018-07-14T02:48:18.401Z,16.80
2018-07-14T02:50:46.672Z,16.80
2018-07-14T02:53:14.882Z,16.70
2018-07-14T02:55:43.101Z,16.60
2018-07-14T02:58:11.314Z,16.50
2018-07-14T03:00:39.553Z,16.40
2018-07-14T03:03:07.775Z,16.40
2018-07-14T03:05:35.981Z,16.20
2018-07-14T03:08:04.208Z,16.10
2018-07-14T03:10:32.429Z,15.70
2018-07-14T03:13:00.660Z,15.70
2018-07-14T03:15:28.866Z,15.70
2018-07-14T03:17:57.057Z,15.60
2018-07-14T03:20:25.279Z,15.80
2018-07-14T03:22:53.449Z,16.10
2018-07-14T03:25:21.649Z,16.20
2018-07-14T03:27:49.808Z,16.20
2018-07-14T03:30:18.026Z,16.20
2018-07-14T03:32:46.188Z,16.20
2018-07-14T03:35:14.627Z,16.20
2018-07-14T03:37:42.832Z,16.20
2018-07-14T03:40:11.020Z,16.20
2018-07-14T03:42:39.206Z,16.10
2018-07-14T03:45:07.748Z,16.20
2018-07-14T03:47:36.177Z,16.20
2018-07-14T03:50:04.799Z,16.00
2018-07-14T03:52:33.037Z,15.90
2018-07-14T03:55:01.232Z,16.00
2018-07-14T03:57:29.381Z,16.20
2018-07-14T03:59:57.592Z,16.40
2018-07-14T04:02:25.780Z,16.50
2018-07-14T04:04:53.937Z,16.50
2018-07-14T04:07:22.169Z,16.50
2018-07-14T04:09:50.348Z,16.40
2018-07-14T04:12:18.548Z,16.40
2018-07-14T04:14:46.814Z,16.10
2018-07-14T04:17:15.033Z,16.00
2018-07-14T04:19:43.353Z,16.00
2018-07-14T04:22:11.529Z,16.10
2018-07-14T04:24:39.828Z,16.10
2018-07-14T04:27:08.056Z,16.30
2018-07-14T04:29:36.233Z,16.30
2018-07-14T04:32:04.485Z,16.30
2018-07-14T04:34:32.665Z,16.10
2018-07-14T04:37:00.894Z,16.20
2018-07-14T04:39:29.128Z,16.10
2018-07-14T04:41:57.305Z,16.00
2018-07-14T04:44:25.513Z,16.00
2018-07-14T04:46:53.713Z,16.10
2018-07-14T04:49:21.995Z,16.10
2018-07-14T04:51:50.213Z,16.30
2018-07-14T04:54:18.464Z,16.40
2018-07-14T04:56:46.680Z,16.40
2018-07-14T04:59:14.890Z,16.40
2018-07-14T05:01:43.080Z,16.40
2018-07-14T05:04:11.294Z,16.50
2018-07-14T05:06:39.489Z,16.70
2018-07-14T05:09:07.808Z,16.80
2018-07-14T05:11:36.024Z,16.90
2018-07-14T05:14:04.228Z,17.00
2018-07-14T05:16:32.479Z,17.10
2018-07-14T05:19:00.703Z,17.30
2018-07-14T05:21:28.950Z,17.60
2018-07-14T05:23:57.240Z,17.70
2018-07-14T05:26:25.440Z,17.90
2018-07-14T05:28:53.632Z,18.20
2018-07-14T05:31:21.841Z,18.40
2018-07-14T05:33:50.041Z,18.70
2018-07-14T05:36:18.936Z,18.80
2018-07-14T05:38:47.867Z,19.20
2018-07-14T05:41:16.715Z,19.60
2018-07-14T05:43:44.981Z,19.70
2018-07-14T05:46:13.275Z,19.80
2018-07-14T05:48:41.644Z,19.80
2018-07-14T05:51:09.886Z,20.30
2018-07-14T05:53:38.098Z,20.60
2018-07-14T05:56:06.338Z,20.80
2018-07-14T05:58:34.581Z,20.50
2018-07-14T06:01:02.898Z,20.70
2018-07-14T06:03:31.141Z,20.70
2018-07-14T06:06:00.174Z,20.70
2018-07-14T06:08:28.388Z,20.80
2018-07-14T06:10:56.609Z,20.80
2018-07-14T06:13:24.785Z,21.00
2018-07-14T06:15:53.036Z,21.30
2018-07-14T06:18:21.245Z,21.90
2018-07-14T06:20:49.935Z,22.10
2018-07-14T06:23:18.684Z,22.10
2018-07-14T06:25:47.333Z,22.10
2018-07-14T06:28:16.081Z,22.20
2018-07-14T06:30:44.723Z,22.30
2018-07-14T06:33:13.440Z,22.30
2018-07-14T06:35:42.196Z,22.30
2018-07-14T06:38:10.440Z,22.30
2018-07-14T06:40:38.695Z,22.30
2018-07-14T06:43:07.028Z,22.20
2018-07-14T06:45:35.270Z,22.20
2018-07-14T06:48:03.465Z,22.30
2018-07-14T06:50:31.680Z,22.20
2018-07-14T06:53:00.188Z,22.20
2018-07-14T06:55:28.354Z,22.20
2018-07-14T06:57:56.556Z,22.20
2018-07-14T07:00:24.749Z,22.10
2018-07-14T07:02:53.015Z,22.20
2018-07-14T07:05:21.236Z,22.30
2018-07-14T07:07:49.439Z,22.70
2018-07-14T07:10:17.701Z,23.30
2018-07-14T07:12:45.876Z,23.60
2018-07-14T07:15:14.156Z,23.40
2018-07-14T07:17:42.348Z,23.30
2018-07-14T07:20:10.588Z,23.90
2018-07-14T07:22:38.841Z,24.50
2018-07-14T07:25:07.058Z,24.70
2018-07-14T07:27:35.293Z,24.70
2018-07-14T07:30:03.612Z,24.50
2018-07-14T07:32:31.822Z,24.60
2018-07-14T07:35:00.072Z,24.60
2018-07-14T07:37:28.262Z,24.30
2018-07-14T07:39:56.493Z,24.50
2018-07-14T07:42:24.785Z,24.80
2018-07-14T07:44:53.025Z,25.20
2018-07-14T07:47:21.289Z,25.20
2018-07-14T07:49:50.151Z,25.20
2018-07-14T07:52:18.927Z,25.60
2018-07-14T07:54:47.651Z,26.10
2018-07-14T07:57:16.363Z,26.40
2018-07-14T07:59:45.054Z,26.50
2018-07-14T08:02:13.715Z,26.80
2018-07-14T08:04:42.400Z,26.60
2018-07-14T08:07:11.030Z,26.50
2018-07-14T08:09:39.943Z,26.60
2018-07-14T08:12:08.677Z,26.70
2018-07-14T08:14:37.317Z,27.00
2018-07-14T08:17:06.064Z,27.10
2018-07-14T08:19:34.224Z,27.30
2018-07-14T08:22:02.453Z,27.30
2018-07-14T08:24:31.179Z,27.20
2018-07-14T08:26:59.341Z,27.20
2018-07-14T08:29:27.525Z,27.40
2018-07-14T08:31:55.737Z,27.30
2018-07-14T08:34:23.949Z,27.30
2018-07-14T08:36:52.213Z,27.30
2018-07-14T08:39:20.488Z,27.50
2018-07-14T08:41:48.667Z,27.60
2018-07-14T08:44:16.848Z,27.70
2018-07-14T08:46:45.081Z,27.80
2018-07-14T08:49:13.292Z,27.80
2018-07-14T08:51:41.601Z,27.30
2018-07-14T08:54:09.764Z,27.20
2018-07-14T08:56:37.979Z,26.90
2018-07-14T08:59:06.185Z,26.70
2018-07-14T09:01:34.357Z,26.60
2018-07-14T09:04:02.552Z,26.60
2018-07-14T09:06:30.742Z,26.80
2018-07-14T09:08:58.928Z,27.00
2018-07-14T09:11:27.093Z,27.20
2018-07-14T09:13:55.292Z,27.20
2018-07-14T09:18:51.692Z,28.00
2018-07-14T09:21:19.958Z,28.10
2018-07-14T09:23:48.120Z,28.40
2018-07-14T09:26:16.302Z,28.10
2018-07-14T09:28:44.489Z,28.00
2018-07-14T09:31:12.693Z,27.90
2018-07-14T09:33:40.854Z,28.20
2018-07-14T09:36:09.098Z,28.10
2018-07-14T09:38:37.279Z,27.60
2018-07-14T09:41:05.443Z,27.20
2018-07-14T09:43:33.664Z,27.20
2018-07-14T09:46:01.832Z,27.40
2018-07-14T09:48:30.029Z,27.40
2018-07-14T09:50:58.300Z,27.60
2018-07-14T09:53:26.648Z,27.90
2018-07-14T09:55:54.944Z,28.20
2018-07-14T09:58:23.132Z,28.50
2018-07-14T10:00:56.734Z,28.60
2018-07-14T10:03:24.938Z,28.60
2018-07-14T10:05:53.153Z,28.50
2018-07-14T10:08:21.336Z,28.70
2018-07-14T10:10:49.524Z,28.80
2018-07-14T10:13:17.784Z,28.90
2018-07-14T10:15:45.997Z,29.00
2018-07-14T10:18:14.271Z,29.20
2018-07-14T10:20:42.523Z,29.40
2018-07-14T10:23:10.719Z,29.60
2018-07-14T10:25:39.024Z,29.50
2018-07-14T10:28:07.105Z,29.20
2018-07-14T10:30:35.309Z,29.10
2018-07-14T10:33:03.514Z,29.00
2018-07-14T10:35:31.745Z,29.10
2018-07-14T10:37:59.936Z,29.50
2018-07-14T10:40:28.106Z,29.70
2018-07-14T10:42:56.300Z,30.00
2018-07-14T10:45:24.536Z,30.10
2018-07-14T10:47:52.692Z,30.10
2018-07-14T10:50:20.904Z,29.70
2018-07-14T10:52:49.080Z,29.20
2018-07-14T10:55:17.314Z,28.80
2018-07-14T10:57:45.508Z,28.40
2018-07-14T11:00:13.734Z,28.10
2018-07-14T11:02:41.906Z,27.90
2018-07-14T11:05:10.171Z,27.80
2018-07-14T11:07:38.373Z,27.60
2018-07-14T11:10:06.572Z,27.50
2018-07-14T11:12:34.765Z,27.20
2018-07-14T11:15:02.974Z,27.20
2018-07-14T11:17:31.157Z,27.30
2018-07-14T11:19:59.449Z,27.70
2018-07-14T11:22:28.183Z,27.90
2018-07-14T11:25:05.417Z,28.60
2018-07-14T11:27:34.116Z,29.10
2018-07-14T11:30:02.428Z,28.90
2018-07-14T11:32:30.638Z,29.10
2018-07-14T11:34:59.295Z,29.00
2018-07-14T11:37:27.647Z,28.50
2018-07-14T11:39:55.920Z,28.20
2018-07-14T11:42:24.191Z,28.30
2018-07-14T11:44:52.344Z,28.50
2018-07-14T11:47:20.574Z,28.70
2018-07-14T11:49:48.760Z,28.80
2018-07-14T11:52:16.997Z,29.00
2018-07-14T11:54:45.277Z,29.10
2018-07-14T11:57:13.437Z,29.00
2018-07-14T11:59:41.695Z,28.60
2018-07-14T12:02:09.869Z,28.20
2018-07-14T12:04:38.156Z,28.20
2018-07-14T12:07:06.492Z,28.20
2018-07-14T12:09:34.708Z,28.20
2018-07-14T12:12:03.368Z,28.30
2018-07-14T12:14:31.574Z,28.40
2018-07-14T12:16:59.797Z,28.30
2018-07-14T12:19:27.972Z,28.30
2018-07-14T12:21:56.173Z,28.10
2018-07-14T12:24:24.482Z,27.70
2018-07-14T12:26:52.648Z,26.60
2018-07-14T12:29:20.845Z,25.60
2018-07-14T12:31:49.045Z,25.20
2018-07-14T12:34:17.241Z,24.90
2018-07-14T12:36:45.582Z,24.90
2018-07-14T12:39:13.833Z,24.60
2018-07-14T12:41:42.101Z,24.80
2018-07-14T12:44:10.405Z,25.40
2018-07-14T12:46:38.679Z,25.70
2018-07-14T12:49:06.892Z,25.40
2018-07-14T12:51:35.069Z,25.40
2018-07-14T12:54:03.289Z,25.50
2018-07-14T12:56:31.489Z,25.70
2018-07-14T12:58:59.777Z,26.00
2018-07-14T13:01:28.037Z,25.90
2018-07-14T13:03:56.271Z,26.10
2018-07-14T13:06:24.534Z,26.60
2018-07-14T13:08:52.761Z,26.90
2018-07-14T13:11:20.985Z,27.00
2018-07-14T13:13:49.388Z,27.20
2018-07-14T13:16:17.656Z,27.60
2018-07-14T13:18:45.853Z,27.80
2018-07-14T13:21:14.101Z,27.90
2018-07-14T13:23:42.298Z,27.70
2018-07-14T13:26:10.467Z,27.60
2018-07-14T13:28:38.649Z,28.00
2018-07-14T13:31:06.840Z,28.20
2018-07-14T13:33:35.030Z,28.30
2018-07-14T13:36:03.241Z,28.60
2018-07-14T13:38:31.392Z,28.70
2018-07-14T13:40:59.622Z,28.90
2018-07-14T13:43:27.816Z,28.90
2018-07-14T13:45:56.037Z,28.70
2018-07-14T13:48:24.247Z,28.50
2018-07-14T13:50:52.421Z,28.10
2018-07-14T13:53:20.652Z,28.10
2018-07-14T13:55:48.913Z,28.20
2018-07-14T13:58:17.198Z,28.30
2018-07-14T14:00:45.477Z,28.00
2018-07-14T14:03:13.675Z,28.00
2018-07-14T14:05:41.865Z,27.50
2018-07-14T14:08:10.021Z,27.00
2018-07-14T14:10:38.236Z,26.90
2018-07-14T14:13:06.448Z,26.90
2018-07-14T14:15:34.830Z,26.90
2018-07-14T14:20:31.020Z,27.20
2018-07-14T14:22:59.204Z,27.30
2018-07-14T14:25:27.416Z,27.30
2018-07-14T14:27:55.805Z,27.70
2018-07-14T14:30:24.036Z,27.70
2018-07-14T14:32:52.213Z,27.70
2018-07-14T14:35:20.409Z,27.90
2018-07-14T14:37:48.605Z,28.10
2018-07-14T14:40:16.756Z,27.90
2018-07-14T14:42:45.001Z,28.20
2018-07-14T14:45:13.222Z,28.30
2018-07-14T14:47:41.429Z,28.00
2018-07-14T14:50:09.681Z,28.10
2018-07-14T14:52:37.865Z,28.10
2018-07-14T14:55:06.184Z,28.10
2018-07-14T14:57:34.435Z,28.10
2018-07-14T15:00:02.649Z,28.00
2018-07-14T15:02:30.886Z,28.00
2018-07-14T15:04:59.046Z,27.80
2018-07-14T15:07:27.350Z,27.50
2018-07-14T15:09:55.560Z,27.30
2018-07-14T15:12:23.749Z,27.10
2018-07-14T15:14:51.957Z,26.80
2018-07-14T15:17:20.176Z,26.60
2018-07-14T15:19:48.380Z,26.50
2018-07-14T15:24:44.508Z,26.80
2018-07-14T15:27:12.785Z,26.90
2018-07-14T15:29:40.975Z,26.90
2018-07-14T15:32:09.305Z,26.80
2018-07-14T15:34:37.524Z,26.80
2018-07-14T15:37:05.741Z,26.70
2018-07-14T15:39:33.933Z,26.60
2018-07-14T15:42:02.101Z,26.30
2018-07-14T15:44:30.306Z,26.20
2018-07-14T15:46:58.472Z,26.00
2018-07-14T15:49:26.677Z,25.90
2018-07-14T15:51:54.875Z,25.80
2018-07-14T15:54:23.444Z,25.60
2018-07-14T15:56:51.734Z,25.40
2018-07-14T15:59:19.933Z,25.40
2018-07-14T16:01:48.224Z,25.10
2018-07-14T16:04:16.489Z,24.40
2018-07-14T16:06:44.646Z,23.90
2018-07-14T16:09:12.837Z,22.80
2018-07-14T16:11:41.991Z,22.00
2018-07-14T16:14:10.198Z,21.60
2018-07-14T16:16:38.433Z,21.10
2018-07-14T16:19:06.661Z,21.00
2018-07-14T16:21:34.824Z,20.80
2018-07-14T16:24:03.016Z,20.50
2018-07-14T16:26:31.234Z,20.30
2018-07-14T16:28:59.470Z,20.00
2018-07-14T16:31:27.675Z,20.20
2018-07-14T16:33:55.965Z,20.40
2018-07-14T16:36:24.227Z,20.50
2018-07-14T16:38:52.489Z,20.60
2018-07-14T16:41:20.809Z,20.60
2018-07-14T16:43:49.105Z,20.20
2018-07-14T16:46:17.344Z,19.90
2018-07-14T16:48:45.553Z,19.80
2018-07-14T16:51:13.837Z,19.80
2018-07-14T16:53:42.089Z,19.90
2018-07-14T16:56:10.314Z,20.10
2018-07-14T16:58:38.627Z,20.30
2018-07-14T17:01:06.845Z,20.30
2018-07-14T17:03:35.065Z,20.20
2018-07-14T17:06:03.289Z,20.30
2018-07-14T17:08:31.538Z,20.50
2018-07-14T17:10:59.789Z,20.50
2018-07-14T17:13:27.976Z,20.60
2018-07-14T17:15:56.181Z,20.70
2018-07-14T17:18:24.397Z,20.60
2018-07-14T17:20:52.632Z,20.60
2018-07-14T17:23:20.841Z,20.70
2018-07-14T17:25:49.033Z,20.90
2018-07-14T17:28:17.246Z,21.00
2018-07-14T17:30:45.481Z,21.00
2018-07-14T17:33:13.654Z,21.00
2018-07-14T17:35:41.969Z,21.00
2018-07-14T17:38:10.184Z,21.00
2018-07-14T17:40:38.398Z,21.00
2018-07-14T17:43:06.756Z,21.10
2018-07-14T17:45:34.932Z,21.20
2018-07-14T17:48:03.181Z,21.30
2018-07-14T17:50:31.405Z,21.20
2018-07-14T17:52:59.641Z,21.10
2018-07-14T17:55:27.806Z,21.00
2018-07-14T17:57:56.145Z,21.10
2018-07-14T18:00:24.335Z,21.10
2018-07-14T18:02:52.620Z,21.10
2018-07-14T18:05:21.044Z,21.10
2018-07-14T18:07:49.277Z,20.90
2018-07-14T18:10:17.514Z,20.90
2018-07-14T18:12:45.697Z,21.00
2018-07-14T18:15:13.913Z,21.10
2018-07-14T18:17:42.086Z,21.20
2018-07-14T18:20:10.358Z,21.30
2018-07-14T18:22:38.613Z,21.20
2018-07-14T18:25:06.809Z,21.00
2018-07-14T18:27:35.027Z,21.00
2018-07-14T18:30:03.374Z,20.80
2018-07-14T18:32:31.763Z,20.60
2018-07-14T18:34:59.952Z,20.50
2018-07-14T18:37:28.148Z,20.50
2018-07-14T18:39:56.354Z,20.60
2018-07-14T18:42:24.764Z,20.70
2018-07-14T18:44:53.384Z,20.60
2018-07-14T18:47:21.829Z,20.60
2018-07-14T18:49:50.100Z,20.70
2018-07-14T18:52:18.404Z,20.60
2018-07-14T18:54:46.630Z,20.60
2018-07-14T18:57:14.937Z,20.60
2018-07-14T18:59:43.110Z,20.60
2018-07-14T19:02:12.276Z,20.40
2018-07-14T19:04:40.480Z,20.40
2018-07-14T19:07:09.998Z,20.30
2018-07-14T19:09:38.214Z,20.30
2018-07-14T19:12:06.433Z,20.30
2018-07-14T19:14:34.640Z,20.20
2018-07-14T19:17:02.870Z,20.10
2018-07-14T19:19:31.056Z,20.10
2018-07-14T19:21:59.248Z,20.10
2018-07-14T19:24:27.412Z,20.10
2018-07-14T19:26:56.617Z,20.10
2018-07-14T19:29:25.169Z,20.00
2018-07-14T19:31:53.367Z,20.00
2018-07-14T19:34:21.558Z,20.00
2018-07-14T19:36:49.792Z,20.00
2018-07-14T19:41:46.668Z,19.80
2018-07-14T19:44:14.944Z,19.80
2018-07-14T19:46:43.498Z,19.80
2018-07-14T19:49:11.720Z,19.80
2018-07-14T19:51:40.100Z,19.80
2018-07-14T19:54:08.332Z,19.80
2018-07-14T19:56:37.010Z,19.80
2018-07-14T19:59:05.672Z,19.70
2018-07-14T20:01:33.949Z,19.60
2018-07-14T20:04:02.169Z,19.50
2018-07-14T20:06:30.399Z,19.30
2018-07-14T20:08:58.593Z,19.20
2018-07-14T20:11:27.003Z,19.10
2018-07-14T20:13:55.188Z,19.20
2018-07-14T20:16:23.373Z,19.00
2018-07-14T20:18:52.211Z,18.90
2018-07-14T20:21:20.487Z,19.00
2018-07-14T20:23:49.376Z,19.10
2018-07-14T20:26:17.673Z,19.10
2018-07-14T20:28:46.731Z,19.10
2018-07-14T20:31:15.073Z,19.20
2018-07-14T20:33:43.509Z,19.20
2018-07-14T20:36:11.776Z,19.30
2018-07-14T20:38:40.062Z,19.30
2018-07-14T20:41:08.376Z,19.40
2018-07-14T20:43:36.705Z,19.30
2018-07-14T20:46:05.640Z,19.10
2018-07-14T20:48:33.878Z,19.10
2018-07-14T20:51:02.092Z,19.00
2018-07-14T20:53:30.285Z,18.80
2018-07-14T20:55:58.530Z,18.70
2018-07-14T20:58:26.812Z,18.90
2018-07-14T21:00:55.029Z,18.80
2018-07-14T21:03:23.252Z,18.70
2018-07-14T21:05:51.464Z,18.60
2018-07-14T21:08:19.690Z,18.60
2018-07-14T21:10:47.873Z,18.50
2018-07-14T21:13:16.078Z,18.50
2018-07-14T21:15:44.361Z,18.50
2018-07-14T21:18:12.551Z,18.50
2018-07-14T21:20:40.800Z,18.60
2018-07-14T21:23:08.977Z,18.60
2018-07-14T21:25:37.261Z,18.50
2018-07-14T21:28:05.472Z,18.50
2018-07-14T21:30:33.690Z,18.50
2018-07-14T21:33:01.923Z,18.50
2018-07-14T21:35:30.264Z,18.60
2018-07-14T21:37:58.461Z,18.60
2018-07-14T21:40:26.696Z,18.60
2018-07-14T21:42:54.880Z,18.70
2018-07-14T21:45:23.145Z,18.70
2018-07-14T21:47:51.381Z,18.50
2018-07-14T21:50:19.593Z,18.30
2018-07-14T21:52:47.797Z,18.10
2018-07-14T21:55:15.997Z,18.00
2018-07-14T21:57:44.208Z,18.10
2018-07-14T22:00:22.741Z,18.10
2018-07-14T22:02:50.975Z,18.10
2018-07-14T22:05:19.258Z,17.90
2018-07-14T22:07:47.494Z,17.70
2018-07-14T22:10:15.727Z,17.50
2018-07-14T22:12:43.913Z,17.40
2018-07-14T22:15:12.173Z,17.40
2018-07-14T22:17:40.466Z,17.50
2018-07-14T22:20:08.802Z,17.60
2018-07-14T22:22:37.002Z,17.70
2018-07-14T22:25:05.251Z,17.70
2018-07-14T22:27:33.500Z,17.80
2018-07-14T22:30:01.826Z,17.90
2018-07-14T22:32:30.063Z,17.80
2018-07-14T22:34:58.246Z,17.60
2018-07-14T22:37:26.467Z,17.30
2018-07-14T22:39:54.632Z,17.30
2018-07-14T22:42:22.841Z,17.40
2018-07-14T22:44:51.125Z,17.30
2018-07-14T22:47:19.333Z,17.30
2018-07-14T22:49:47.570Z,17.40
2018-07-14T22:52:15.800Z,17.50
2018-07-14T22:54:43.997Z,17.60
2018-07-14T22:57:12.185Z,17.60
2018-07-14T22:59:40.477Z,17.40
2018-07-14T23:02:08.656Z,17.20
2018-07-14T23:04:36.893Z,17.10
2018-07-14T23:07:05.137Z,17.00
2018-07-14T23:09:33.309Z,16.80
2018-07-14T23:12:01.630Z,16.60
2018-07-14T23:14:29.875Z,16.70
2018-07-14T23:16:58.088Z,16.90
2018-07-14T23:19:26.301Z,17.00
2018-07-14T23:21:54.500Z,17.10
2018-07-14T23:24:22.728Z,17.10
2018-07-14T23:26:50.942Z,16.90
2018-07-14T23:29:19.157Z,16.50
2018-07-14T23:31:47.384Z,16.40
2018-07-14T23:34:15.561Z,16.40
2018-07-14T23:36:43.770Z,16.50
2018-07-14T23:39:11.961Z,16.50
2018-07-14T23:41:40.147Z,16.60
2018-07-14T23:44:08.433Z,16.70
2018-07-14T23:46:36.649Z,16.60
2018-07-14T23:49:04.931Z,16.70
2018-07-14T23:51:33.137Z,16.70
2018-07-14T23:54:01.297Z,16.80
2018-07-14T23:56:29.505Z,16.80
2018-07-14T23:58:57.718Z,16.80
